sensor_id;sensor_type;location;lat;lon;timestamp;temperature;humidity
3736;DHT22;1883;48.202;16.310;2022-08-01T02:00:24;20.90;73.20
3736;DHT22;1883;48.202;16.310;2022-08-01T02:02:52;20.90;73.20
3736;DHT22;1883;48.202;16.310;2022-08-01T02:05:20;20.90;73.20
3736;DHT22;1883;48.202;16.310;2022-08-01T02:07:49;20.90;73.20
3736;DHT22;1883;48.202;16.310;2022-08-01T02:10:17;20.90;73.30
3736;DHT22;1883;48.202;16.310;2022-08-01T02:12:46;20.90;73.30
3736;DHT22;1883;48.202;16.310;2022-08-01T02:15:16;20.80;73.30
3736;DHT22;1883;48.202;16.310;2022-08-01T02:17:48;20.90;73.40
3736;DHT22;1883;48.202;16.310;2022-08-01T02:20:16;20.90;73.40
3736;DHT22;1883;48.202;16.310;2022-08-01T02:22:46;21.00;73.50
3736;DHT22;1883;48.202;16.310;2022-08-01T02:25:17;21.00;73.50
3736;DHT22;1883;48.202;16.310;2022-08-01T02:27:52;21.00;73.50
3736;DHT22;1883;48.202;16.310;2022-08-01T02:30:23;21.00;73.60
3736;DHT22;1883;48.202;16.310;2022-08-01T02:38:05;21.00;73.70
3736;DHT22;1883;48.202;16.310;2022-08-01T03:06:38;20.90;73.60
3736;DHT22;1883;48.202;16.310;2022-08-01T03:09:06;20.90;73.60
3736;DHT22;1883;48.202;16.310;2022-08-01T03:11:35;20.90;73.60
3736;DHT22;1883;48.202;16.310;2022-08-01T03:14:08;20.90;73.60
3736;DHT22;1883;48.202;16.310;2022-08-01T03:16:38;20.90;73.60
3736;DHT22;1883;48.202;16.310;2022-08-01T03:19:06;20.90;73.60
3736;DHT22;1883;48.202;16.310;2022-08-01T03:21:34;20.90;73.60
3736;DHT22;1883;48.202;16.310;2022-08-01T03:24:05;20.90;73.60
3736;DHT22;1883;48.202;16.310;2022-08-01T03:26:34;20.90;73.60
3736;DHT22;1883;48.202;16.310;2022-08-01T03:29:05;20.90;73.60
3736;DHT22;1883;48.202;16.310;2022-08-01T03:31:34;20.90;73.70
3736;DHT22;1883;48.202;16.310;2022-08-01T03:34:02;20.90;73.70
3736;DHT22;1883;48.202;16.310;2022-08-01T03:36:30;21.00;73.80
3736;DHT22;1883;48.202;16.310;2022-08-01T03:39:01;20.90;73.80
3736;DHT22;1883;48.202;16.310;2022-08-01T03:44:10;21.00;73.90
3736;DHT22;1883;48.202;16.310;2022-08-01T03:46:42;21.00;73.90
3736;DHT22;1883;48.202;16.310;2022-08-01T03:49:13;21.00;73.90
3736;DHT22;1883;48.202;16.310;2022-08-01T03:51:41;21.10;74.00
3736;DHT22;1883;48.202;16.310;2022-08-01T03:54:11;21.10;74.10
3736;DHT22;1883;48.202;16.310;2022-08-01T03:56:40;21.20;74.20
3736;DHT22;1883;48.202;16.310;2022-08-01T03:59:10;21.20;74.30
3736;DHT22;1883;48.202;16.310;2022-08-01T23:28:38;21.20;73.00
3736;DHT22;1883;48.202;16.310;2022-08-01T23:31:05;21.30;72.80
3736;DHT22;1883;48.202;16.310;2022-08-01T23:33:33;21.20;72.80
3736;DHT22;1883;48.202;16.310;2022-08-01T23:53:08;21.60;73.40
3736;DHT22;1883;48.202;16.310;2022-08-01T23:55:35;21.60;73.30
3736;DHT22;1883;48.202;16.310;2022-08-01T23:58:02;21.60;73.20
